Flight Track Log - Related Links

Times and Time Zones

All times are in EDT time to prevent confusion due to time zone crossing. See the SWA34 flight status page for this flight to view local times or setup timezone preferences in your user account.

Time Position Orientation Groundspeed Altitude Reporting Facility
EDT Latitude Longitude Course Direction KTS MPH feet Rate Location/Type
Thu 10:35:58 AM 36.9350 -76.1636 35° Northeast 192 221 2,000  Level Washington Center
Thu 10:36:59 AM 36.9764 -76.2003 325° Northwest 249 287 3,900 984 Climbing Washington Center
Thu 10:38:00 AM 36.9739 -76.2939 268° West 257 296 4,000 79 Climbing Washington Center
Thu 10:38:15 AM 36.9739 -76.3172 270° West 259 298 4,000 2,852 Level Washington Center
Thu 10:39:01 AM 36.9714 -76.3797 267° West 252 290 6,900 3,623 Climbing Washington Center
Thu 10:40:01 AM 36.9539 -76.4625 255° West 253 291 10,400 2,731 Climbing Washington Center
Thu 10:41:15 AM 36.9117 -76.5608 242° Southwest 287 330 13,000 2,731 Climbing Washington Center
Thu 10:42:15 AM 36.8711 -76.6564 242° Southwest 300 345 16,500 2,750 Climbing Washington Center
Thu 10:43:15 AM 36.8264 -76.7544 240° Southwest 313 360 18,500 2,300 Climbing Washington Center
Thu 10:44:15 AM 36.7794 -76.8678 243° Southwest 325 374 21,100 2,400 Climbing Washington Center
Thu 10:45:15 AM 36.7344 -76.9628 239° Southwest 347 399 23,300 2,100 Climbing Washington Center
Thu 10:46:15 AM 36.6853 -77.0733 241° Southwest 347 399 25,300 1,950 Climbing Washington Center
Thu 10:47:15 AM 36.6358 -77.1811 240° Southwest 354 407 27,200 2,250 Climbing Washington Center
Thu 10:48:15 AM 36.5864 -77.2889 240° Southwest 359 413 29,800 2,150 Climbing Washington Center
Thu 10:49:15 AM 36.5369 -77.3911 239° Southwest 359 413 31,500 1,650 Climbing Washington Center
Thu 10:50:15 AM 36.4625 -77.4747 222° Southwest 359 413 33,100 1,250 Climbing Washington Center
Thu 10:51:15 AM 36.3903 -77.5531 221° Southwest 349 402 34,000 450 Climbing Washington Center
Thu 10:52:15 AM 36.3078 -77.6308 217° Southwest 363 418 34,000 200 Level Washington Center
Thu 10:53:15 AM 36.2311 -77.7111 220° Southwest 368 423 34,400 850 Climbing Washington Center
Thu 10:54:15 AM 36.1525 -77.7889 219° Southwest 368 423 35,700 800 Climbing Washington Center
Thu 10:55:15 AM 36.0761 -77.8664 219° Southwest 363 418 36,000 150 Climbing Washington Center
Thu 10:56:15 AM 35.9994 -77.9439 219° Southwest 356 410 36,000  Level Washington Center
Thu 10:57:15 AM 35.9208 -78.0208 218° Southwest 361 415 36,000  Level Washington Center
Thu 10:58:15 AM 35.8439 -78.0981 219° Southwest 361 415 36,000  Level Washington Center
Thu 10:59:15 AM 35.7653 -78.1750 218° Southwest 361 415 36,000  Level Washington Center
Thu 11:00:15 AM 35.6883 -78.2517 219° Southwest 361 415 36,000  Level Washington Center
Thu 11:01:15 AM 35.6117 -78.3258 218° Southwest 361 415 36,000  Level Washington Center
Thu 11:02:15 AM 35.5303 -78.4072 219° Southwest 361 415 36,000  Level Washington Center
Thu 11:03:15 AM 35.4514 -78.4833 218° Southwest 366 421 36,000  Level Washington Center
Thu 11:04:15 AM 35.3658 -78.5694 219° Southwest 366 421 36,000  Level Washington Center
Thu 11:05:15 AM 35.2847 -78.6453 217° Southwest 372 428 36,000  Level Washington Center
Thu 11:06:15 AM 35.2075 -78.7239 220° Southwest 372 428 36,000  Level Washington Center
Thu 11:07:15 AM 35.1261 -78.8019 218° Southwest 367 422 36,000  Level Washington Center
Thu 11:08:15 AM 35.0467 -78.8800 219° Southwest 367 422 36,000  Level Washington Center
Thu 11:10:03 AM 34.9014 -79.0175 218° Southwest 372 428 36,000  Level Jacksonville Center
Thu 11:11:03 AM 34.8222 -79.0942 218° Southwest 372 428 36,000  Level Jacksonville Center
Thu 11:12:03 AM 34.7392 -79.1711 217° Southwest 372 428 36,000  Level Jacksonville Center
Thu 11:13:03 AM 34.6600 -79.2503 219° Southwest 372 428 36,000  Level Jacksonville Center
Thu 11:14:03 AM 34.5789 -79.3294 219° Southwest 372 428 36,000  Level Jacksonville Center
Thu 11:15:03 AM 34.5058 -79.4031 220° Southwest 372 428 36,000  Level Jacksonville Center
Thu 11:16:03 AM 34.4164 -79.4847 217° Southwest 372 428 36,000  Level Jacksonville Center
Thu 11:17:03 AM 34.3328 -79.5608 217° Southwest 377 434 36,000  Level Jacksonville Center
Thu 11:18:03 AM 34.2514 -79.6394 219° Southwest 377 434 36,000  Level Jacksonville Center
Thu 11:19:03 AM 34.2139 -79.7286 243° Southwest 343 395 36,000  Level Jacksonville Center
Thu 11:20:03 AM 34.1875 -79.8400 254° West 343 395 36,000  Level Jacksonville Center
Thu 11:21:03 AM 34.1589 -79.9514 253° West 348 400 36,000  Level Jacksonville Center
Thu 11:22:03 AM 34.1281 -80.0653 252° West 353 406 36,000  Level Jacksonville Center
Thu 11:23:03 AM 34.0972 -80.1742 251° West 353 406 36,000  Level Jacksonville Center
Thu 11:24:03 AM 34.0683 -80.2878 253° West 353 406 36,000  Level Jacksonville Center
Thu 11:25:03 AM 34.0372 -80.3992 251° West 353 406 36,000  Level Jacksonville Center
Thu 11:26:03 AM 34.0081 -80.5100 252° West 353 406 36,000  Level Jacksonville Center
Thu 11:27:03 AM 33.9786 -80.6211 252° West 348 400 36,000  Level Jacksonville Center
Thu 11:28:03 AM 33.9472 -80.7347 252° West 348 400 36,000  Level Jacksonville Center
Thu 11:29:03 AM 33.9158 -80.8481 252° West 353 406 36,000  Level Jacksonville Center
Thu 11:30:03 AM 33.8861 -80.9564 252° West 348 400 36,000  Level Jacksonville Center
Thu 11:31:03 AM 33.8506 -81.0769 250° West 348 400 36,000  Level Jacksonville Center
Thu 11:33:05 AM 33.7844 -81.2994 250° West 349 402 36,000  Level Atlanta Center
Thu 11:34:05 AM 33.7494 -81.4081 249° West 349 402 36,000  Level Atlanta Center
Thu 11:35:05 AM 33.7183 -81.5214 252° West 349 402 36,000  Level Atlanta Center
Thu 11:36:05 AM 33.6831 -81.6297 249° West 349 402 36,000  Level Atlanta Center
Thu 11:37:05 AM 33.6497 -81.7406 250° West 349 402 36,000  Level Atlanta Center
Thu 11:38:05 AM 33.6183 -81.8536 252° West 349 402 36,000 -100 Level Atlanta Center
Thu 11:39:05 AM 33.5847 -81.9617 250° West 349 402 35,800 -650 Descending Atlanta Center
Thu 11:40:05 AM 33.5511 -82.0722 250° West 349 402 34,700 -1,050 Descending Atlanta Center
Thu 11:41:05 AM 33.5172 -82.1825 250° West 349 402 33,700 -900 Descending Atlanta Center
Thu 11:42:05 AM 33.4961 -82.3000 258° West 349 402 32,900 -850 Descending Atlanta Center
Thu 11:43:05 AM 33.4789 -82.4175 260° West 360 414 32,000 -1,000 Descending Atlanta Center
Thu 11:44:05 AM 33.4700 -82.5397 265° West 368 423 30,900 -1,000 Descending Atlanta Center
Thu 11:45:05 AM 33.4525 -82.6619 260° West 370 426 30,000 -900 Descending Atlanta Center
Thu 11:46:05 AM 33.4475 -82.7839 267° West 370 426 29,100 -900 Descending Atlanta Center
Thu 11:47:05 AM 33.4342 -82.9111 263° West 375 432 28,200 -2,000 Descending Atlanta Center
Thu 11:48:05 AM 33.4228 -83.0358 264° West 381 438 25,100 -3,000 Descending Atlanta Center
Thu 11:49:05 AM 33.4092 -83.1628 263° West 391 450 22,200 -2,850 Descending Atlanta Center
Thu 11:50:05 AM 33.3975 -83.2850 264° West 384 442 19,400 -2,450 Descending Atlanta Center
Thu 11:51:05 AM 33.3897 -83.3894 265° West 368 423 17,300 -2,600 Descending Atlanta Center
Thu 11:52:05 AM 33.3778 -83.5039 263° West 368 423 14,200 -2,106 Descending Atlanta Center
Thu 11:53:36 AM 33.3667 -83.6667 265° West 285 328 12,000 -1,113 Descending Atlanta TRACON
Thu 11:54:36 AM 33.3500 -83.7500 257° West 261 300 11,400 -1,100 Descending Atlanta TRACON
Thu 11:55:36 AM 33.3500 -83.8500 270° West 254 292 9,800 -1,483 Descending Atlanta TRACON
Thu 11:56:05 AM 33.3411 -83.8822 252° West 259 298 9,200 -1,213 Descending Atlanta Center
Thu 11:57:05 AM 33.3331 -83.9642 263° West 254 292 8,000 -1,150 Descending Atlanta Center
Thu 11:58:05 AM 33.3767 -84.0239 311° West 232 267 6,900 -1,350 Descending Atlanta Center
Thu 11:59:05 AM 33.4372 -84.0711 327° Northwest 249 287 5,300 -1,350 Descending Atlanta Center
Thu 12:00:05 PM 33.5000 -84.1186 328° Northwest 257 296 4,200 -1,055 Descending Atlanta Center
Thu 12:00:36 PM 33.5333 -84.1333 340° North 259 298 3,700 -857 Descending Atlanta TRACON
Thu 12:01:36 PM 33.5833 -84.1833 320° Northwest 244 281 2,900 -350 Descending Atlanta TRACON
Thu 12:02:36 PM 33.6167 -84.2333 309° West 184 212 3,000 50 Climbing Atlanta TRACON
Thu 12:03:36 PM 33.6333 -84.3000 287° West 175 201 3,000 -400 Level Atlanta TRACON
Thu 12:04:36 PM 33.6333 -84.3500 270° West 157 181 2,200 -750 Descending Atlanta TRACON
Thu 12:05:36 PM 33.6333 -84.4000 270° West 132 152 1,500 -700 Descending Atlanta TRACON
Thu 12:07:00 PM 33.6367 -84.4279 270° West  Level Estimated
Thu 12:14:00 PM 33.6367 -84.4279 64° Northeast  Level Estimated

Login

Don't have an account? Register now (free) for customized features, flight alerts, and more!